sensor_id;sensor_type;location;lat;lon;timestamp;P1;durP1;ratioP1;P2;durP2;ratioP2
9904;SDS011;4991;43.566;27.820;2023-06-24T00:01:30;12.97;;;11.10;;
9904;SDS011;4991;43.566;27.820;2023-06-24T00:03:56;11.97;;;10.40;;
9904;SDS011;4991;43.566;27.820;2023-06-24T00:06:23;12.93;;;9.63;;
9904;SDS011;4991;43.566;27.820;2023-06-24T00:08:51;12.77;;;11.00;;
9904;SDS011;4991;43.566;27.820;2023-06-24T00:11:18;12.20;;;10.90;;
9904;SDS011;4991;43.566;27.820;2023-06-24T00:13:44;12.73;;;10.00;;
9904;SDS011;4991;43.566;27.820;2023-06-24T00:16:10;12.13;;;9.50;;
9904;SDS011;4991;43.566;27.820;2023-06-24T00:18:36;13.63;;;9.93;;
9904;SDS011;4991;43.566;27.820;2023-06-24T00:21:06;11.43;;;10.23;;
9904;SDS011;4991;43.566;27.820;2023-06-24T00:23:32;11.93;;;9.83;;
9904;SDS011;4991;43.566;27.820;2023-06-24T00:25:59;10.40;;;9.40;;
9904;SDS011;4991;43.566;27.820;2023-06-24T00:28:25;11.47;;;10.27;;
9904;SDS011;4991;43.566;27.820;2023-06-24T00:30:50;12.43;;;10.20;;
9904;SDS011;4991;43.566;27.820;2023-06-24T00:33:16;11.67;;;9.60;;
9904;SDS011;4991;43.566;27.820;2023-06-24T00:35:44;10.50;;;9.23;;
9904;SDS011;4991;43.566;27.820;2023-06-24T00:38:10;9.83;;;8.83;;
9904;SDS011;4991;43.566;27.820;2023-06-24T00:40:36;11.20;;;9.23;;
9904;SDS011;4991;43.566;27.820;2023-06-24T00:43:03;10.40;;;9.30;;
9904;SDS011;4991;43.566;27.820;2023-06-24T00:45:29;10.17;;;9.07;;
9904;SDS011;4991;43.566;27.820;2023-06-24T00:47:55;10.23;;;8.50;;
9904;SDS011;4991;43.566;27.820;2023-06-24T00:50:23;10.73;;;9.20;;
9904;SDS011;4991;43.566;27.820;2023-06-24T00:52:49;9.33;;;8.43;;
9904;SDS011;4991;43.566;27.820;2023-06-24T00:55:15;11.03;;;9.70;;
9904;SDS011;4991;43.566;27.820;2023-06-24T00:57:42;9.87;;;8.87;;
9904;SDS011;4991;43.566;27.820;2023-06-24T01:00:09;9.27;;;8.33;;
9904;SDS011;4991;43.566;27.820;2023-06-24T01:02:40;9.93;;;8.83;;
9904;SDS011;4991;43.566;27.820;2023-06-24T01:05:08;12.23;;;8.80;;
9904;SDS011;4991;43.566;27.820;2023-06-24T01:07:37;10.37;;;8.77;;
9904;SDS011;4991;43.566;27.820;2023-06-24T01:10:03;11.13;;;9.00;;
9904;SDS011;4991;43.566;27.820;2023-06-24T01:12:33;10.47;;;8.40;;
9904;SDS011;4991;43.566;27.820;2023-06-24T01:15:00;10.53;;;8.53;;
9904;SDS011;4991;43.566;27.820;2023-06-24T01:17:31;9.40;;;8.50;;
9904;SDS011;4991;43.566;27.820;2023-06-24T01:20:22;11.90;;;8.77;;
9904;SDS011;4991;43.566;27.820;2023-06-24T01:23:14;10.37;;;8.43;;
9904;SDS011;4991;43.566;27.820;2023-06-24T01:32:11;10.20;;;7.93;;
9904;SDS011;4991;43.566;27.820;2023-06-24T01:35:05;12.13;;;8.10;;
9904;SDS011;4991;43.566;27.820;2023-06-24T01:37:45;9.83;;;8.47;;
9904;SDS011;4991;43.566;27.820;2023-06-24T01:40:35;8.50;;;7.70;;
9904;SDS011;4991;43.566;27.820;2023-06-24T01:43:05;9.57;;;8.03;;
9904;SDS011;4991;43.566;27.820;2023-06-24T01:45:36;7.87;;;7.07;;
9904;SDS011;4991;43.566;27.820;2023-06-24T01:50:38;8.37;;;7.57;;
9904;SDS011;4991;43.566;27.820;2023-06-24T01:53:08;9.33;;;7.47;;
9904;SDS011;4991;43.566;27.820;2023-06-24T01:55:34;9.53;;;7.50;;
9904;SDS011;4991;43.566;27.820;2023-06-24T01:58:02;8.40;;;7.60;;
9904;SDS011;4991;43.566;27.820;2023-06-24T02:00:31;9.10;;;7.40;;
9904;SDS011;4991;43.566;27.820;2023-06-24T02:02:58;9.83;;;7.90;;
9904;SDS011;4991;43.566;27.820;2023-06-24T02:05:26;8.83;;;7.80;;
9904;SDS011;4991;43.566;27.820;2023-06-24T02:07:53;8.63;;;7.67;;
9904;SDS011;4991;43.566;27.820;2023-06-24T02:10:21;9.50;;;7.63;;
9904;SDS011;4991;43.566;27.820;2023-06-24T02:12:49;11.10;;;7.07;;
9904;SDS011;4991;43.566;27.820;2023-06-24T02:15:18;9.57;;;7.47;;
9904;SDS011;4991;43.566;27.820;2023-06-24T02:17:45;10.40;;;8.33;;
9904;SDS011;4991;43.566;27.820;2023-06-24T02:20:13;8.70;;;7.77;;
9904;SDS011;4991;43.566;27.820;2023-06-24T02:22:41;9.80;;;8.00;;
9904;SDS011;4991;43.566;27.820;2023-06-24T02:25:07;8.93;;;8.00;;
9904;SDS011;4991;43.566;27.820;2023-06-24T02:27:34;8.50;;;7.43;;
9904;SDS011;4991;43.566;27.820;2023-06-24T02:30:01;12.67;;;7.83;;
9904;SDS011;4991;43.566;27.820;2023-06-24T02:32:29;10.93;;;8.10;;
9904;SDS011;4991;43.566;27.820;2023-06-24T02:34:54;9.50;;;8.20;;
9904;SDS011;4991;43.566;27.820;2023-06-24T02:37:20;9.00;;;8.10;;
9904;SDS011;4991;43.566;27.820;2023-06-24T02:39:45;10.70;;;7.80;;
9904;SDS011;4991;43.566;27.820;2023-06-24T02:42:11;10.60;;;8.10;;
9904;SDS011;4991;43.566;27.820;2023-06-24T02:44:37;10.30;;;8.20;;
9904;SDS011;4991;43.566;27.820;2023-06-24T02:47:06;9.20;;;8.13;;
9904;SDS011;4991;43.566;27.820;2023-06-24T02:49:34;13.00;;;7.60;;
9904;SDS011;4991;43.566;27.820;2023-06-24T02:52:02;9.70;;;8.50;;
9904;SDS011;4991;43.566;27.820;2023-06-24T02:54:28;11.77;;;8.43;;
9904;SDS011;4991;43.566;27.820;2023-06-24T02:56:54;9.33;;;8.33;;
9904;SDS011;4991;43.566;27.820;2023-06-24T02:59:23;8.53;;;7.73;;
9904;SDS011;4991;43.566;27.820;2023-06-24T03:01:49;9.07;;;8.00;;
9904;SDS011;4991;43.566;27.820;2023-06-24T03:04:17;11.43;;;8.03;;
9904;SDS011;4991;43.566;27.820;2023-06-24T03:06:45;11.03;;;7.97;;
9904;SDS011;4991;43.566;27.820;2023-06-24T03:09:11;8.90;;;7.77;;
9904;SDS011;4991;43.566;27.820;2023-06-24T03:11:41;10.23;;;8.17;;
9904;SDS011;4991;43.566;27.820;2023-06-24T03:14:07;11.63;;;8.47;;
9904;SDS011;4991;43.566;27.820;2023-06-24T03:16:33;14.97;;;11.30;;
9904;SDS011;4991;43.566;27.820;2023-06-24T03:18:59;16.47;;;10.83;;
9904;SDS011;4991;43.566;27.820;2023-06-24T03:21:25;11.37;;;10.13;;
9904;SDS011;4991;43.566;27.820;2023-06-24T03:23:54;11.87;;;9.17;;
9904;SDS011;4991;43.566;27.820;2023-06-24T03:26:20;11.67;;;8.57;;
9904;SDS011;4991;43.566;27.820;2023-06-24T03:28:45;17.77;;;9.50;;
9904;SDS011;4991;43.566;27.820;2023-06-24T03:31:11;11.20;;;8.70;;
9904;SDS011;4991;43.566;27.820;2023-06-24T03:33:37;14.60;;;9.50;;
9904;SDS011;4991;43.566;27.820;2023-06-24T03:36:02;9.83;;;8.27;;
9904;SDS011;4991;43.566;27.820;2023-06-24T03:38:28;10.90;;;8.73;;
9904;SDS011;4991;43.566;27.820;2023-06-24T03:40:54;12.63;;;7.93;;
9904;SDS011;4991;43.566;27.820;2023-06-24T03:43:19;11.23;;;8.43;;
9904;SDS011;4991;43.566;27.820;2023-06-24T03:45:45;13.83;;;8.33;;
9904;SDS011;4991;43.566;27.820;2023-06-24T03:48:11;9.67;;;8.40;;
9904;SDS011;4991;43.566;27.820;2023-06-24T03:50:36;8.33;;;7.47;;
9904;SDS011;4991;43.566;27.820;2023-06-24T03:53:03;9.90;;;7.93;;
9904;SDS011;4991;43.566;27.820;2023-06-24T03:55:29;10.70;;;7.43;;
9904;SDS011;4991;43.566;27.820;2023-06-24T03:57:55;13.23;;;8.03;;
9904;SDS011;4991;43.566;27.820;2023-06-24T04:00:20;9.90;;;7.97;;
9904;SDS011;4991;43.566;27.820;2023-06-24T04:02:46;8.83;;;7.27;;
9904;SDS011;4991;43.566;27.820;2023-06-24T04:05:12;7.90;;;7.10;;
9904;SDS011;4991;43.566;27.820;2023-06-24T04:07:38;11.10;;;8.00;;
9904;SDS011;4991;43.566;27.820;2023-06-24T04:10:05;10.30;;;7.50;;
9904;SDS011;4991;43.566;27.820;2023-06-24T04:12:36;13.47;;;7.83;;
9904;SDS011;4991;43.566;27.820;2023-06-24T04:15:02;9.13;;;7.13;;
9904;SDS011;4991;43.566;27.820;2023-06-24T04:17:28;7.13;;;6.43;;
9904;SDS011;4991;43.566;27.820;2023-06-24T04:19:55;15.47;;;7.60;;
9904;SDS011;4991;43.566;27.820;2023-06-24T04:22:21;9.70;;;7.67;;
9904;SDS011;4991;43.566;27.820;2023-06-24T04:24:47;9.87;;;7.33;;
9904;SDS011;4991;43.566;27.820;2023-06-24T04:27:13;10.87;;;7.50;;
9904;SDS011;4991;43.566;27.820;2023-06-24T04:29:38;7.87;;;6.80;;
9904;SDS011;4991;43.566;27.820;2023-06-24T04:32:04;10.10;;;6.73;;
9904;SDS011;4991;43.566;27.820;2023-06-24T04:34:30;12.00;;;7.00;;
9904;SDS011;4991;43.566;27.820;2023-06-24T04:36:57;9.33;;;7.40;;
9904;SDS011;4991;43.566;27.820;2023-06-24T04:39:23;11.43;;;7.70;;
9904;SDS011;4991;43.566;27.820;2023-06-24T04:41:50;16.30;;;9.90;;
9904;SDS011;4991;43.566;27.820;2023-06-24T04:44:16;13.83;;;9.60;;
9904;SDS011;4991;43.566;27.820;2023-06-24T04:46:42;15.57;;;10.07;;
9904;SDS011;4991;43.566;27.820;2023-06-24T04:49:07;19.00;;;9.77;;
9904;SDS011;4991;43.566;27.820;2023-06-24T04:51:33;10.90;;;7.83;;
9904;SDS011;4991;43.566;27.820;2023-06-24T04:53:59;10.70;;;8.07;;
9904;SDS011;4991;43.566;27.820;2023-06-24T04:56:26;11.93;;;6.87;;
9904;SDS011;4991;43.566;27.820;2023-06-24T04:58:51;11.00;;;7.23;;
9904;SDS011;4991;43.566;27.820;2023-06-24T05:01:17;10.67;;;7.27;;
9904;SDS011;4991;43.566;27.820;2023-06-24T05:03:43;7.37;;;6.23;;
9904;SDS011;4991;43.566;27.820;2023-06-24T05:06:09;12.03;;;8.33;;
9904;SDS011;4991;43.566;27.820;2023-06-24T05:08:35;11.97;;;9.53;;
9904;SDS011;4991;43.566;27.820;2023-06-24T05:11:00;9.73;;;7.13;;
9904;SDS011;4991;43.566;27.820;2023-06-24T05:13:27;7.70;;;5.70;;
9904;SDS011;4991;43.566;27.820;2023-06-24T05:15:53;10.60;;;6.90;;
9904;SDS011;4991;43.566;27.820;2023-06-24T05:18:18;6.57;;;5.03;;
9904;SDS011;4991;43.566;27.820;2023-06-24T05:20:44;8.27;;;5.47;;
9904;SDS011;4991;43.566;27.820;2023-06-24T05:23:09;11.03;;;5.77;;
9904;SDS011;4991;43.566;27.820;2023-06-24T05:25:35;9.07;;;5.50;;
9904;SDS011;4991;43.566;27.820;2023-06-24T05:28:01;9.03;;;5.27;;
9904;SDS011;4991;43.566;27.820;2023-06-24T05:30:26;12.73;;;6.17;;
9904;SDS011;4991;43.566;27.820;2023-06-24T05:32:52;8.40;;;5.30;;
9904;SDS011;4991;43.566;27.820;2023-06-24T05:35:18;9.03;;;6.17;;
9904;SDS011;4991;43.566;27.820;2023-06-24T05:37:43;5.30;;;4.80;;
9904;SDS011;4991;43.566;27.820;2023-06-24T05:40:09;8.73;;;4.70;;
9904;SDS011;4991;43.566;27.820;2023-06-24T05:42:35;6.40;;;4.57;;
9904;SDS011;4991;43.566;27.820;2023-06-24T05:45:01;6.72;;;5.57;;
9904;SDS011;4991;43.566;27.820;2023-06-24T05:47:26;7.32;;;4.90;;
9904;SDS011;4991;43.566;27.820;2023-06-24T05:49:52;5.27;;;4.77;;
9904;SDS011;4991;43.566;27.820;2023-06-24T05:52:17;5.60;;;4.35;;
9904;SDS011;4991;43.566;27.820;2023-06-24T05:54:43;5.38;;;4.88;;
9904;SDS011;4991;43.566;27.820;2023-06-24T05:57:09;5.22;;;4.32;;
9904;SDS011;4991;43.566;27.820;2023-06-24T05:59:35;5.38;;;4.65;;
9904;SDS011;4991;43.566;27.820;2023-06-24T06:02:01;5.07;;;4.50;;
9904;SDS011;4991;43.566;27.820;2023-06-24T06:04:27;6.38;;;4.75;;
9904;SDS011;4991;43.566;27.820;2023-06-24T06:06:53;6.93;;;4.55;;
9904;SDS011;4991;43.566;27.820;2023-06-24T06:09:19;6.55;;;4.80;;
9904;SDS011;4991;43.566;27.820;2023-06-24T06:11:45;5.55;;;4.30;;
9904;SDS011;4991;43.566;27.820;2023-06-24T06:14:11;5.03;;;4.50;;
9904;SDS011;4991;43.566;27.820;2023-06-24T06:16:36;5.63;;;5.00;;
9904;SDS011;4991;43.566;27.820;2023-06-24T06:19:02;9.68;;;4.80;;
9904;SDS011;4991;43.566;27.820;2023-06-24T06:21:28;4.65;;;4.15;;
9904;SDS011;4991;43.566;27.820;2023-06-24T06:23:54;6.30;;;4.75;;
9904;SDS011;4991;43.566;27.820;2023-06-24T06:26:19;6.70;;;4.07;;
9904;SDS011;4991;43.566;27.820;2023-06-24T06:28:45;4.68;;;4.20;;
9904;SDS011;4991;43.566;27.820;2023-06-24T06:31:12;4.32;;;3.92;;
9904;SDS011;4991;43.566;27.820;2023-06-24T06:33:38;5.22;;;4.30;;
9904;SDS011;4991;43.566;27.820;2023-06-24T06:36:03;9.57;;;4.32;;
9904;SDS011;4991;43.566;27.820;2023-06-24T06:38:29;5.72;;;4.75;;
9904;SDS011;4991;43.566;27.820;2023-06-24T06:40:55;4.75;;;4.25;;
9904;SDS011;4991;43.566;27.820;2023-06-24T06:43:21;5.93;;;4.38;;
9904;SDS011;4991;43.566;27.820;2023-06-24T06:45:47;5.35;;;4.13;;
9904;SDS011;4991;43.566;27.820;2023-06-24T06:48:12;4.20;;;3.80;;
9904;SDS011;4991;43.566;27.820;2023-06-24T06:50:38;5.05;;;4.50;;
9904;SDS011;4991;43.566;27.820;2023-06-24T06:53:03;4.57;;;4.18;;
9904;SDS011;4991;43.566;27.820;2023-06-24T06:55:29;4.30;;;3.90;;
9904;SDS011;4991;43.566;27.820;2023-06-24T06:57:55;6.07;;;4.25;;
9904;SDS011;4991;43.566;27.820;2023-06-24T07:00:21;4.85;;;4.43;;
9904;SDS011;4991;43.566;27.820;2023-06-24T07:02:46;4.85;;;4.35;;
9904;SDS011;4991;43.566;27.820;2023-06-24T07:05:12;4.40;;;4.00;;
9904;SDS011;4991;43.566;27.820;2023-06-24T07:07:37;5.90;;;3.85;;
9904;SDS011;4991;43.566;27.820;2023-06-24T07:10:04;5.15;;;4.35;;
9904;SDS011;4991;43.566;27.820;2023-06-24T07:12:30;5.32;;;4.55;;
9904;SDS011;4991;43.566;27.820;2023-06-24T07:14:56;4.90;;;4.40;;
9904;SDS011;4991;43.566;27.820;2023-06-24T07:17:22;4.90;;;4.00;;
9904;SDS011;4991;43.566;27.820;2023-06-24T07:19:47;3.92;;;3.53;;
9904;SDS011;4991;43.566;27.820;2023-06-24T07:22:13;4.88;;;4.25;;
9904;SDS011;4991;43.566;27.820;2023-06-24T07:24:39;5.20;;;3.97;;
9904;SDS011;4991;43.566;27.820;2023-06-24T07:27:05;4.35;;;3.60;;
9904;SDS011;4991;43.566;27.820;2023-06-24T07:29:31;5.00;;;4.50;;
9904;SDS011;4991;43.566;27.820;2023-06-24T07:31:57;6.40;;;4.32;;
9904;SDS011;4991;43.566;27.820;2023-06-24T07:34:22;4.82;;;3.50;;
9904;SDS011;4991;43.566;27.820;2023-06-24T07:36:48;7.07;;;4.10;;
9904;SDS011;4991;43.566;27.820;2023-06-24T07:39:15;5.30;;;3.50;;
9904;SDS011;4991;43.566;27.820;2023-06-24T07:41:41;4.57;;;3.30;;
9904;SDS011;4991;43.566;27.820;2023-06-24T07:44:07;4.80;;;3.42;;
9904;SDS011;4991;43.566;27.820;2023-06-24T07:46:33;5.03;;;3.58;;
9904;SDS011;4991;43.566;27.820;2023-06-24T07:48:59;4.78;;;3.70;;
9904;SDS011;4991;43.566;27.820;2023-06-24T07:51:25;4.25;;;3.85;;
9904;SDS011;4991;43.566;27.820;2023-06-24T07:53:50;6.35;;;3.85;;
9904;SDS011;4991;43.566;27.820;2023-06-24T07:56:16;5.00;;;3.90;;
9904;SDS011;4991;43.566;27.820;2023-06-24T07:58:41;6.28;;;3.70;;
9904;SDS011;4991;43.566;27.820;2023-06-24T08:01:07;4.30;;;3.70;;
9904;SDS011;4991;43.566;27.820;2023-06-24T08:03:33;4.07;;;3.45;;
9904;SDS011;4991;43.566;27.820;2023-06-24T08:05:59;4.63;;;4.00;;
9904;SDS011;4991;43.566;27.820;2023-06-24T08:08:24;4.55;;;4.10;;
9904;SDS011;4991;43.566;27.820;2023-06-24T08:10:50;4.38;;;3.97;;
9904;SDS011;4991;43.566;27.820;2023-06-24T08:13:15;4.18;;;3.78;;
9904;SDS011;4991;43.566;27.820;2023-06-24T08:15:41;4.53;;;4.07;;
9904;SDS011;4991;43.566;27.820;2023-06-24T08:18:07;4.50;;;3.70;;
9904;SDS011;4991;43.566;27.820;2023-06-24T08:20:32;4.07;;;3.67;;
9904;SDS011;4991;43.566;27.820;2023-06-24T08:22:58;4.07;;;3.67;;
9904;SDS011;4991;43.566;27.820;2023-06-24T08:25:24;6.38;;;4.28;;
9904;SDS011;4991;43.566;27.820;2023-06-24T08:27:49;4.15;;;3.75;;
9904;SDS011;4991;43.566;27.820;2023-06-24T08:30:15;5.57;;;4.50;;
9904;SDS011;4991;43.566;27.820;2023-06-24T08:32:41;6.70;;;4.75;;
9904;SDS011;4991;43.566;27.820;2023-06-24T08:35:07;4.47;;;4.07;;
9904;SDS011;4991;43.566;27.820;2023-06-24T08:37:34;5.72;;;4.60;;
9904;SDS011;4991;43.566;27.820;2023-06-24T08:39:59;5.35;;;4.18;;
9904;SDS011;4991;43.566;27.820;2023-06-24T08:42:25;19.05;;;4.57;;
9904;SDS011;4991;43.566;27.820;2023-06-24T08:44:51;7.15;;;4.25;;
9904;SDS011;4991;43.566;27.820;2023-06-24T08:47:17;5.25;;;4.25;;
9904;SDS011;4991;43.566;27.820;2023-06-24T08:49:44;4.88;;;4.10;;
9904;SDS011;4991;43.566;27.820;2023-06-24T08:52:16;5.65;;;5.05;;
9904;SDS011;4991;43.566;27.820;2023-06-24T08:54:42;6.40;;;4.93;;
9904;SDS011;4991;43.566;27.820;2023-06-24T08:57:17;4.60;;;3.85;;
9904;SDS011;4991;43.566;27.820;2023-06-24T08:59:43;6.55;;;4.20;;
9904;SDS011;4991;43.566;27.820;2023-06-24T09:02:09;7.40;;;4.88;;
9904;SDS011;4991;43.566;27.820;2023-06-24T09:04:36;4.82;;;4.43;;
9904;SDS011;4991;43.566;27.820;2023-06-24T09:07:01;4.55;;;3.70;;
9904;SDS011;4991;43.566;27.820;2023-06-24T09:09:28;4.82;;;3.80;;
9904;SDS011;4991;43.566;27.820;2023-06-24T09:11:54;4.32;;;3.92;;
9904;SDS011;4991;43.566;27.820;2023-06-24T09:14:24;5.95;;;4.38;;
9904;SDS011;4991;43.566;27.820;2023-06-24T09:16:57;5.60;;;3.90;;
9904;SDS011;4991;43.566;27.820;2023-06-24T09:19:27;4.38;;;3.83;;
9904;SDS011;4991;43.566;27.820;2023-06-24T09:21:54;4.28;;;3.72;;
9904;SDS011;4991;43.566;27.820;2023-06-24T09:24:30;5.20;;;4.57;;
9904;SDS011;4991;43.566;27.820;2023-06-24T09:26:56;5.22;;;4.18;;
9904;SDS011;4991;43.566;27.820;2023-06-24T09:29:26;5.18;;;4.38;;
9904;SDS011;4991;43.566;27.820;2023-06-24T09:31:53;5.55;;;4.28;;
9904;SDS011;4991;43.566;27.820;2023-06-24T09:34:21;7.15;;;4.65;;
9904;SDS011;4991;43.566;27.820;2023-06-24T09:36:53;7.63;;;5.25;;
9904;SDS011;4991;43.566;27.820;2023-06-24T09:39:20;5.65;;;4.60;;
9904;SDS011;4991;43.566;27.820;2023-06-24T09:41:50;5.95;;;4.03;;
9904;SDS011;4991;43.566;27.820;2023-06-24T09:44:16;7.93;;;4.50;;
9904;SDS011;4991;43.566;27.820;2023-06-24T09:46:44;5.65;;;4.47;;
9904;SDS011;4991;43.566;27.820;2023-06-24T09:49:10;5.95;;;4.78;;
9904;SDS011;4991;43.566;27.820;2023-06-24T09:51:40;7.00;;;4.47;;
9904;SDS011;4991;43.566;27.820;2023-06-24T09:54:09;5.38;;;4.30;;
9904;SDS011;4991;43.566;27.820;2023-06-24T09:56:35;4.50;;;4.07;;
9904;SDS011;4991;43.566;27.820;2023-06-24T09:59:05;6.80;;;4.60;;
9904;SDS011;4991;43.566;27.820;2023-06-24T10:01:32;8.02;;;3.97;;
9904;SDS011;4991;43.566;27.820;2023-06-24T10:04:00;4.43;;;3.95;;
9904;SDS011;4991;43.566;27.820;2023-06-24T10:06:27;8.48;;;3.95;;
9904;SDS011;4991;43.566;27.820;2023-06-24T10:08:53;4.32;;;3.92;;
9904;SDS011;4991;43.566;27.820;2023-06-24T10:11:19;5.50;;;3.90;;
9904;SDS011;4991;43.566;27.820;2023-06-24T10:13:45;4.95;;;4.28;;
9904;SDS011;4991;43.566;27.820;2023-06-24T10:16:10;3.97;;;3.67;;
9904;SDS011;4991;43.566;27.820;2023-06-24T10:18:37;4.15;;;3.67;;
9904;SDS011;4991;43.566;27.820;2023-06-24T10:21:04;4.47;;;4.07;;
9904;SDS011;4991;43.566;27.820;2023-06-24T10:23:53;5.13;;;3.65;;
9904;SDS011;4991;43.566;27.820;2023-06-24T10:26:24;4.38;;;3.70;;
9904;SDS011;4991;43.566;27.820;2023-06-24T10:37:20;5.55;;;3.63;;
9904;SDS011;4991;43.566;27.820;2023-06-24T10:39:56;5.03;;;3.83;;
9904;SDS011;4991;43.566;27.820;2023-06-24T10:44:49;8.27;;;3.60;;
9904;SDS011;4991;43.566;27.820;2023-06-24T10:47:17;4.60;;;4.20;;
9904;SDS011;4991;43.566;27.820;2023-06-24T10:49:43;6.18;;;4.03;;
9904;SDS011;4991;43.566;27.820;2023-06-24T10:52:09;7.22;;;4.75;;
9904;SDS011;4991;43.566;27.820;2023-06-24T10:54:39;4.18;;;3.78;;
9904;SDS011;4991;43.566;27.820;2023-06-24T10:57:06;4.88;;;3.60;;
9904;SDS011;4991;43.566;27.820;2023-06-24T10:59:39;4.07;;;3.58;;
9904;SDS011;4991;43.566;27.820;2023-06-24T11:02:09;4.60;;;3.75;;
9904;SDS011;4991;43.566;27.820;2023-06-24T11:04:57;5.43;;;3.67;;
9904;SDS011;4991;43.566;27.820;2023-06-24T11:07:24;4.70;;;3.30;;
9904;SDS011;4991;43.566;27.820;2023-06-24T11:09:51;4.50;;;3.20;;
9904;SDS011;4991;43.566;27.820;2023-06-24T11:12:18;6.55;;;3.90;;
9904;SDS011;4991;43.566;27.820;2023-06-24T11:14:44;3.50;;;3.20;;
9904;SDS011;4991;43.566;27.820;2023-06-24T11:17:11;5.88;;;3.70;;
9904;SDS011;4991;43.566;27.820;2023-06-24T11:19:36;3.45;;;3.15;;
9904;SDS011;4991;43.566;27.820;2023-06-24T11:22:05;4.70;;;4.03;;
9904;SDS011;4991;43.566;27.820;2023-06-24T11:24:32;2.85;;;2.65;;
9904;SDS011;4991;43.566;27.820;2023-06-24T11:26:58;3.45;;;2.83;;
9904;SDS011;4991;43.566;27.820;2023-06-24T11:29:24;3.15;;;2.85;;
9904;SDS011;4991;43.566;27.820;2023-06-24T11:31:53;5.03;;;3.95;;
9904;SDS011;4991;43.566;27.820;2023-06-24T11:34:19;4.82;;;3.92;;
9904;SDS011;4991;43.566;27.820;2023-06-24T11:36:44;2.95;;;2.75;;
9904;SDS011;4991;43.566;27.820;2023-06-24T11:39:27;5.20;;;3.40;;
9904;SDS011;4991;43.566;27.820;2023-06-24T11:41:53;3.50;;;3.20;;
9904;SDS011;4991;43.566;27.820;2023-06-24T11:44:25;3.85;;;3.15;;
9904;SDS011;4991;43.566;27.820;2023-06-24T11:46:51;3.28;;;2.97;;
9904;SDS011;4991;43.566;27.820;2023-06-24T11:49:17;4.10;;;3.33;;
9904;SDS011;4991;43.566;27.820;2023-06-24T11:51:47;3.47;;;2.85;;
9904;SDS011;4991;43.566;27.820;2023-06-24T11:54:18;3.38;;;3.08;;
9904;SDS011;4991;43.566;27.820;2023-06-24T11:56:54;3.45;;;3.15;;
9904;SDS011;4991;43.566;27.820;2023-06-24T11:59:23;4.50;;;3.30;;
9904;SDS011;4991;43.566;27.820;2023-06-24T12:04:27;3.08;;;2.88;;
9904;SDS011;4991;43.566;27.820;2023-06-24T12:06:54;4.70;;;2.88;;
9904;SDS011;4991;43.566;27.820;2023-06-24T12:09:20;3.63;;;3.33;;
9904;SDS011;4991;43.566;27.820;2023-06-24T12:11:46;5.07;;;3.28;;
9904;SDS011;4991;43.566;27.820;2023-06-24T12:14:11;3.58;;;3.28;;
9904;SDS011;4991;43.566;27.820;2023-06-24T12:16:38;4.50;;;4.10;;
9904;SDS011;4991;43.566;27.820;2023-06-24T12:19:07;5.45;;;3.97;;
9904;SDS011;4991;43.566;27.820;2023-06-24T12:21:33;4.95;;;4.55;;
9904;SDS011;4991;43.566;27.820;2023-06-24T12:23:59;5.07;;;3.88;;
9904;SDS011;4991;43.566;27.820;2023-06-24T12:26:25;4.40;;;4.00;;
9904;SDS011;4991;43.566;27.820;2023-06-24T12:28:50;5.43;;;3.92;;
9904;SDS011;4991;43.566;27.820;2023-06-24T12:31:19;4.97;;;3.65;;
9904;SDS011;4991;43.566;27.820;2023-06-24T12:33:44;4.45;;;4.03;;
9904;SDS011;4991;43.566;27.820;2023-06-24T12:36:10;5.85;;;4.00;;
9904;SDS011;4991;43.566;27.820;2023-06-24T12:38:35;4.30;;;3.75;;
9904;SDS011;4991;43.566;27.820;2023-06-24T12:41:01;4.03;;;3.40;;
9904;SDS011;4991;43.566;27.820;2023-06-24T12:43:27;5.30;;;3.17;;
9904;SDS011;4991;43.566;27.820;2023-06-24T12:45:52;4.13;;;3.72;;
9904;SDS011;4991;43.566;27.820;2023-06-24T12:48:18;4.05;;;3.75;;
9904;SDS011;4991;43.566;27.820;2023-06-24T12:50:43;6.20;;;4.13;;
9904;SDS011;4991;43.566;27.820;2023-06-24T12:53:09;4.47;;;3.80;;
9904;SDS011;4991;43.566;27.820;2023-06-24T12:55:39;4.38;;;3.97;;
9904;SDS011;4991;43.566;27.820;2023-06-24T12:58:05;4.43;;;4.03;;
9904;SDS011;4991;43.566;27.820;2023-06-24T13:00:30;6.53;;;4.72;;
9904;SDS011;4991;43.566;27.820;2023-06-24T13:02:56;5.32;;;4.82;;
9904;SDS011;4991;43.566;27.820;2023-06-24T13:05:21;7.22;;;4.75;;
9904;SDS011;4991;43.566;27.820;2023-06-24T13:07:47;4.88;;;3.72;;
9904;SDS011;4991;43.566;27.820;2023-06-24T13:10:13;4.50;;;4.00;;
9904;SDS011;4991;43.566;27.820;2023-06-24T13:12:38;5.55;;;4.40;;
9904;SDS011;4991;43.566;27.820;2023-06-24T13:15:05;5.15;;;4.03;;
9904;SDS011;4991;43.566;27.820;2023-06-24T13:17:31;6.28;;;5.65;;
9904;SDS011;4991;43.566;27.820;2023-06-24T13:19:57;6.60;;;3.97;;
9904;SDS011;4991;43.566;27.820;2023-06-24T13:22:22;4.32;;;3.92;;
9904;SDS011;4991;43.566;27.820;2023-06-24T13:24:48;4.95;;;3.80;;
9904;SDS011;4991;43.566;27.820;2023-06-24T13:27:14;4.60;;;4.05;;
9904;SDS011;4991;43.566;27.820;2023-06-24T13:29:39;3.85;;;3.55;;
9904;SDS011;4991;43.566;27.820;2023-06-24T13:32:05;4.72;;;4.32;;
9904;SDS011;4991;43.566;27.820;2023-06-24T13:34:31;4.78;;;4.38;;
9904;SDS011;4991;43.566;27.820;2023-06-24T13:36:57;4.40;;;4.00;;
9904;SDS011;4991;43.566;27.820;2023-06-24T13:39:22;4.32;;;3.95;;
9904;SDS011;4991;43.566;27.820;2023-06-24T13:41:50;4.50;;;3.65;;
9904;SDS011;4991;43.566;27.820;2023-06-24T13:44:17;6.30;;;3.90;;
9904;SDS011;4991;43.566;27.820;2023-06-24T13:46:43;8.50;;;3.63;;
9904;SDS011;4991;43.566;27.820;2023-06-24T13:49:09;3.90;;;3.50;;
9904;SDS011;4991;43.566;27.820;2023-06-24T13:51:35;4.45;;;4.00;;
9904;SDS011;4991;43.566;27.820;2023-06-24T13:54:01;4.05;;;3.60;;
9904;SDS011;4991;43.566;27.820;2023-06-24T13:56:26;3.50;;;2.92;;
9904;SDS011;4991;43.566;27.820;2023-06-24T13:58:52;3.20;;;2.90;;
9904;SDS011;4991;43.566;27.820;2023-06-24T14:01:19;3.05;;;2.80;;
9904;SDS011;4991;43.566;27.820;2023-06-24T14:03:46;3.20;;;2.90;;
9904;SDS011;4991;43.566;27.820;2023-06-24T14:06:16;4.75;;;3.63;;
9904;SDS011;4991;43.566;27.820;2023-06-24T14:08:44;4.15;;;3.47;;
9904;SDS011;4991;43.566;27.820;2023-06-24T14:11:10;5.57;;;5.00;;
9904;SDS011;4991;43.566;27.820;2023-06-24T14:13:36;5.25;;;4.30;;
9904;SDS011;4991;43.566;27.820;2023-06-24T14:16:02;2.97;;;2.75;;
9904;SDS011;4991;43.566;27.820;2023-06-24T14:18:28;3.47;;;3.17;;
9904;SDS011;4991;43.566;27.820;2023-06-24T14:20:57;6.20;;;3.40;;
9904;SDS011;4991;43.566;27.820;2023-06-24T14:23:23;5.18;;;3.05;;
9904;SDS011;4991;43.566;27.820;2023-06-24T14:25:50;4.32;;;3.92;;
9904;SDS011;4991;43.566;27.820;2023-06-24T14:28:16;4.25;;;3.65;;
9904;SDS011;4991;43.566;27.820;2023-06-24T14:30:42;3.63;;;3.33;;
9904;SDS011;4991;43.566;27.820;2023-06-24T14:33:08;3.80;;;3.38;;
9904;SDS011;4991;43.566;27.820;2023-06-24T14:35:33;5.20;;;3.95;;
9904;SDS011;4991;43.566;27.820;2023-06-24T14:37:59;3.13;;;2.85;;
9904;SDS011;4991;43.566;27.820;2023-06-24T14:40:25;3.80;;;3.50;;
9904;SDS011;4991;43.566;27.820;2023-06-24T14:42:50;3.63;;;3.33;;
9904;SDS011;4991;43.566;27.820;2023-06-24T14:45:16;9.35;;;4.32;;
9904;SDS011;4991;43.566;27.820;2023-06-24T14:47:42;3.85;;;3.55;;
9904;SDS011;4991;43.566;27.820;2023-06-24T14:50:07;5.40;;;3.97;;
9904;SDS011;4991;43.566;27.820;2023-06-24T14:52:33;9.73;;;4.32;;
9904;SDS011;4991;43.566;27.820;2023-06-24T14:54:58;4.78;;;4.15;;
9904;SDS011;4991;43.566;27.820;2023-06-24T14:57:24;5.47;;;3.38;;
9904;SDS011;4991;43.566;27.820;2023-06-24T14:59:51;3.60;;;3.30;;
9904;SDS011;4991;43.566;27.820;2023-06-24T15:02:16;4.80;;;4.22;;
9904;SDS011;4991;43.566;27.820;2023-06-24T15:04:42;5.22;;;3.30;;
9904;SDS011;4991;43.566;27.820;2023-06-24T15:07:08;4.80;;;4.28;;
9904;SDS011;4991;43.566;27.820;2023-06-24T15:09:34;4.88;;;3.65;;
9904;SDS011;4991;43.566;27.820;2023-06-24T15:11:59;3.92;;;3.53;;
9904;SDS011;4991;43.566;27.820;2023-06-24T15:14:25;4.60;;;3.67;;
9904;SDS011;4991;43.566;27.820;2023-06-24T15:16:51;4.70;;;4.18;;
9904;SDS011;4991;43.566;27.820;2023-06-24T15:19:19;5.70;;;3.80;;